Time;durP1;ratioP1;P1;durP2;ratioP2;P2;SDS_P1;SDS_P2;PMS_P1;PMS_P2;Temp;Humidity;BMP_temperature;BMP_pressure;BME280_temperature;BME280_humidity;BME280_pressure;Samples;Min_cycle;Max_cycle;Signal;HPM_P1;HPM_P2
2023/01/29 00:01:04;;;;;;;12.77;9.65;;;;;;;;;;5093693;28;20453;-83
2023/01/29 00:03:30;;;;;;;14.18;10.82;;;;;;;;;;5106577;28;20038;-82
2023/01/29 00:05:56;;;;;;;16.05;11.10;;;;;;;;;;5099262;28;20056;-82
2023/01/29 00:08:22;;;;;;;11.82;9.82;;;;;;;;;;5099546;28;20031;-83
2023/01/29 00:10:48;;;;;;;16.13;11.70;;;;;;;;;;5090024;28;20028;-82
2023/01/29 00:13:14;;;;;;;16.50;10.85;;;;;;;;;;5076411;28;20053;-82
2023/01/29 00:15:40;;;;;;;15.45;11.13;;;;;;;;;;5096260;28;20054;-81
2023/01/29 00:18:06;;;;;;;14.30;9.40;;;;;;;;;;5079809;28;20027;-82
2023/01/29 00:20:33;;;;;;;15.20;9.38;;;;;;;;;;5092812;28;20035;-82
2023/01/29 00:22:59;;;;;;;16.27;9.70;;;;;;;;;;5094724;28;20023;-82
2023/01/29 00:25:25;;;;;;;15.15;8.10;;;;;;;;;;5081183;28;20036;-81
2023/01/29 00:27:51;;;;;;;13.23;8.27;;;;;;;;;;5100858;28;20040;-82
2023/01/29 00:30:18;;;;;;;13.15;7.60;;;;;;;;;;5083318;28;20031;-85
2023/01/29 00:32:44;;;;;;;11.93;6.97;;;;;;;;;;5097699;28;20043;-82
2023/01/29 00:35:11;;;;;;;14.15;8.27;;;;;;;;;;5096198;28;20028;-83
2023/01/29 00:37:37;;;;;;;16.95;10.15;;;;;;;;;;5101391;28;20046;-84
2023/01/29 00:40:04;;;;;;;11.95;8.20;;;;;;;;;;5101382;28;20035;-82
2023/01/29 00:45:15;;;;;;;13.73;8.25;;;;;;;;;;5098316;28;20093;-82
2023/01/29 00:47:41;;;;;;;15.63;7.70;;;;;;;;;;5086982;28;20031;-81
2023/01/29 00:50:11;;;;;;;13.18;7.68;;;;;;;;;;5105147;28;20426;-81
2023/01/29 00:52:39;;;;;;;10.75;7.97;;;;;;;;;;5102225;28;20034;-86
2023/01/29 00:55:06;;;;;;;11.43;7.93;;;;;;;;;;5096393;28;20053;-83
2023/01/29 00:57:33;;;;;;;17.60;8.45;;;;;;;;;;5078547;28;20044;-78
2023/01/29 00:59:59;;;;;;;16.65;10.25;;;;;;;;;;5080910;28;20036;-80
2023/01/29 01:05:16;;;;;;;9.80;7.38;;;;;;;;;;5103738;28;20054;-83
2023/01/29 01:07:43;;;;;;;10.05;7.82;;;;;;;;;;5098699;28;20574;-82
2023/01/29 01:10:22;;;;;;;11.32;8.68;;;;;;;;;;5097338;28;20027;-82
2023/01/29 01:12:49;;;;;;;12.57;8.05;;;;;;;;;;5099292;28;20117;-85
2023/01/29 01:15:16;;;;;;;12.45;7.60;;;;;;;;;;5097773;28;20471;-84
2023/01/29 01:17:42;;;;;;;11.73;8.57;;;;;;;;;;5098529;28;20015;-82
2023/01/29 01:20:08;;;;;;;14.82;8.65;;;;;;;;;;5091644;28;20027;-82
2023/01/29 01:22:34;;;;;;;10.68;8.02;;;;;;;;;;5096057;28;20028;-83
2023/01/29 01:25:01;;;;;;;16.75;9.40;;;;;;;;;;5089873;28;20059;-86
2023/01/29 01:27:27;;;;;;;10.00;7.50;;;;;;;;;;5084045;28;20035;-86
2023/01/29 01:29:53;;;;;;;12.52;7.88;;;;;;;;;;5086343;28;20036;-82
2023/01/29 01:32:19;;;;;;;10.77;6.93;;;;;;;;;;5101285;28;20051;-88
2023/01/29 01:34:45;;;;;;;8.73;7.13;;;;;;;;;;5095223;28;20020;-80
2023/01/29 01:37:11;;;;;;;9.70;6.82;;;;;;;;;;5104391;28;20509;-81
2023/01/29 01:39:37;;;;;;;9.27;6.57;;;;;;;;;;5099347;28;21739;-81
2023/01/29 01:42:03;;;;;;;7.47;5.97;;;;;;;;;;5095688;28;20397;-81
2023/01/29 01:44:50;;;;;;;11.43;6.50;;;;;;;;;;5095912;28;20036;-86
2023/01/29 01:47:17;;;;;;;7.68;6.43;;;;;;;;;;5093586;28;20031;-83
2023/01/29 01:49:44;;;;;;;12.32;6.15;;;;;;;;;;5101200;28;20023;-82
2023/01/29 01:52:11;;;;;;;10.15;6.78;;;;;;;;;;5095160;28;20024;-83
2023/01/29 01:54:37;;;;;;;14.68;7.10;;;;;;;;;;5104274;28;20434;-83
2023/01/29 01:57:14;;;;;;;10.65;6.82;;;;;;;;;;5097077;28;20031;-82
2023/01/29 01:59:43;;;;;;;9.05;6.82;;;;;;;;;;5098632;28;20107;-83
2023/01/29 02:10:29;;;;;;;16.08;8.05;;;;;;;;;;5089140;28;20084;-84
2023/01/29 02:12:55;;;;;;;12.63;8.32;;;;;;;;;;5086695;28;20055;-82
2023/01/29 02:15:22;;;;;;;15.27;8.88;;;;;;;;;;5095100;28;20031;-82
2023/01/29 02:17:48;;;;;;;13.07;8.98;;;;;;;;;;5086523;28;20260;-83
2023/01/29 02:20:25;;;;;;;14.13;8.70;;;;;;;;;;5092717;28;20427;-83
2023/01/29 02:23:01;;;;;;;14.15;8.70;;;;;;;;;;5092183;28;20329;-83
2023/01/29 02:25:39;;;;;;;12.93;9.23;;;;;;;;;;5088490;28;20032;-85
2023/01/29 02:28:08;;;;;;;12.27;8.40;;;;;;;;;;5097202;28;20156;-82
2023/01/29 02:30:40;;;;;;;10.88;9.00;;;;;;;;;;5100639;28;20077;-83
2023/01/29 02:33:25;;;;;;;16.30;9.90;;;;;;;;;;5091242;28;20118;-83
2023/01/29 02:35:51;;;;;;;12.13;9.20;;;;;;;;;;5093121;28;20084;-83
2023/01/29 02:38:35;;;;;;;12.05;8.82;;;;;;;;;;5100944;28;20020;-85
2023/01/29 02:41:03;;;;;;;17.17;9.77;;;;;;;;;;5096271;28;20035;-83
2023/01/29 02:43:29;;;;;;;12.27;9.40;;;;;;;;;;5105390;28;20027;-84
2023/01/29 02:45:55;;;;;;;15.73;10.63;;;;;;;;;;5102810;28;20035;-83
2023/01/29 02:48:26;;;;;;;15.88;10.88;;;;;;;;;;5108156;28;20032;-83
2023/01/29 02:51:04;;;;;;;13.68;10.93;;;;;;;;;;5097800;28;20092;-83
2023/01/29 02:53:38;;;;;;;13.80;9.98;;;;;;;;;;5096795;28;20021;-83
2023/01/29 02:56:12;;;;;;;14.13;10.45;;;;;;;;;;5093506;28;20111;-83
2023/01/29 02:58:51;;;;;;;15.10;10.98;;;;;;;;;;5096902;28;20054;-83
2023/01/29 03:01:20;;;;;;;17.02;10.85;;;;;;;;;;5096670;28;20329;-85
2023/01/29 03:03:52;;;;;;;16.40;11.13;;;;;;;;;;5097897;28;20028;-82
2023/01/29 03:18:17;;;;;;;16.63;12.32;;;;;;;;;;5101568;28;20077;-83
2023/01/29 03:20:47;;;;;;;16.25;11.90;;;;;;;;;;5094051;28;20047;-86
2023/01/29 03:23:23;;;;;;;17.17;12.95;;;;;;;;;;5109529;28;20102;-83
2023/01/29 03:34:15;;;;;;;17.42;11.90;;;;;;;;;;5104243;28;20076;-84
2023/01/29 03:36:54;;;;;;;16.52;11.45;;;;;;;;;;5102591;28;20040;-83
2023/01/29 03:39:21;;;;;;;19.83;11.88;;;;;;;;;;5105856;28;20395;-83
2023/01/29 03:41:53;;;;;;;16.20;11.85;;;;;;;;;;5097428;28;20107;-86
2023/01/29 03:44:26;;;;;;;14.88;11.38;;;;;;;;;;5100821;28;20022;-83
2023/01/29 03:47:12;;;;;;;15.27;12.15;;;;;;;;;;5097620;28;20061;-83
2023/01/29 03:49:54;;;;;;;15.93;12.02;;;;;;;;;;5055934;28;20031;-81
2023/01/29 03:52:25;;;;;;;16.95;12.52;;;;;;;;;;5100595;28;20032;-81
2023/01/29 03:54:59;;;;;;;16.30;12.55;;;;;;;;;;5087316;28;20036;-84
2023/01/29 03:57:25;;;;;;;15.07;12.80;;;;;;;;;;5099966;28;20058;-85
2023/01/29 03:59:58;;;;;;;15.77;12.82;;;;;;;;;;5101613;28;20042;-82
2023/01/29 04:02:31;;;;;;;16.52;13.00;;;;;;;;;;5100041;28;20073;-82
2023/01/29 04:04:59;;;;;;;16.08;12.30;;;;;;;;;;5103529;28;20034;-82
2023/01/29 04:07:26;;;;;;;15.60;12.68;;;;;;;;;;5093716;28;20054;-83
2023/01/29 04:09:58;;;;;;;18.40;12.65;;;;;;;;;;5105942;28;20495;-81
2023/01/29 04:12:26;;;;;;;17.77;12.48;;;;;;;;;;5100743;28;20074;-81
2023/01/29 04:14:53;;;;;;;17.48;12.57;;;;;;;;;;5081530;28;20029;-82
2023/01/29 04:17:31;;;;;;;15.73;12.48;;;;;;;;;;5096317;28;20027;-82
2023/01/29 04:19:58;;;;;;;18.75;11.70;;;;;;;;;;5099433;28;20024;-81
2023/01/29 04:22:28;;;;;;;17.48;12.30;;;;;;;;;;5089520;28;20025;-82
2023/01/29 04:24:54;;;;;;;16.38;12.20;;;;;;;;;;5093488;28;20366;-81
2023/01/29 04:27:20;;;;;;;16.63;12.55;;;;;;;;;;5062950;28;23247;-82
2023/01/29 04:29:46;;;;;;;17.77;11.32;;;;;;;;;;5079650;28;20027;-81
2023/01/29 04:32:18;;;;;;;19.02;12.13;;;;;;;;;;5079613;28;20055;-83
2023/01/29 04:34:56;;;;;;;15.73;11.60;;;;;;;;;;5097857;28;20035;-82
2023/01/29 04:37:26;;;;;;;15.70;11.63;;;;;;;;;;5081299;28;20093;-83
2023/01/29 04:39:56;;;;;;;14.63;11.82;;;;;;;;;;5098856;28;20028;-84
2023/01/29 04:42:22;;;;;;;13.43;10.82;;;;;;;;;;5087508;28;20031;-84
2023/01/29 04:44:59;;;;;;;13.50;11.43;;;;;;;;;;5094374;28;20032;-86
2023/01/29 04:47:34;;;;;;;17.77;11.98;;;;;;;;;;5093520;28;20108;-83
2023/01/29 04:50:16;;;;;;;14.27;11.43;;;;;;;;;;5097078;28;20349;-82
2023/01/29 04:52:48;;;;;;;15.75;11.85;;;;;;;;;;5099286;28;20525;-83
2023/01/29 04:55:18;;;;;;;15.07;11.75;;;;;;;;;;5093712;28;20506;-84
2023/01/29 04:57:58;;;;;;;17.75;12.80;;;;;;;;;;5097738;28;20037;-83
2023/01/29 05:00:27;;;;;;;15.95;12.30;;;;;;;;;;5091644;28;20728;-84
2023/01/29 05:02:54;;;;;;;29.52;14.52;;;;;;;;;;5103792;28;20023;-88
2023/01/29 05:05:20;;;;;;;16.60;11.40;;;;;;;;;;5100023;28;20121;-84
2023/01/29 05:07:47;;;;;;;14.80;11.63;;;;;;;;;;5097299;28;20163;-83
2023/01/29 05:10:14;;;;;;;17.42;12.75;;;;;;;;;;5096510;28;20038;-84
2023/01/29 05:12:43;;;;;;;21.27;13.30;;;;;;;;;;5104699;28;20102;-82
2023/01/29 05:15:11;;;;;;;20.10;13.63;;;;;;;;;;5104450;28;20157;-84
2023/01/29 05:17:37;;;;;;;20.00;13.60;;;;;;;;;;5095854;28;20506;-88
2023/01/29 05:20:04;;;;;;;17.95;13.55;;;;;;;;;;5096524;28;20407;-84
2023/01/29 05:22:30;;;;;;;16.50;12.88;;;;;;;;;;5100927;28;20028;-85
2023/01/29 05:24:56;;;;;;;17.23;12.77;;;;;;;;;;5088218;28;20032;-83
2023/01/29 05:30:19;;;;;;;17.63;12.32;;;;;;;;;;5081313;28;20115;-84
2023/01/29 05:32:45;;;;;;;21.35;13.13;;;;;;;;;;5075756;28;20036;-88
2023/01/29 05:35:12;;;;;;;14.93;11.95;;;;;;;;;;5094382;28;20025;-85
2023/01/29 05:37:38;;;;;;;20.75;14.07;;;;;;;;;;5101798;28;20024;-84
2023/01/29 05:40:07;;;;;;;22.60;14.88;;;;;;;;;;5071302;28;20031;-84
2023/01/29 05:42:33;;;;;;;23.05;14.77;;;;;;;;;;5087638;28;20039;-86
2023/01/29 05:44:59;;;;;;;21.88;14.93;;;;;;;;;;5098524;28;20024;-85
2023/01/29 05:47:25;;;;;;;26.65;16.50;;;;;;;;;;5101118;28;20032;-83
2023/01/29 05:49:51;;;;;;;23.85;16.48;;;;;;;;;;5087992;28;20043;-85
2023/01/29 05:52:17;;;;;;;23.27;15.55;;;;;;;;;;5095139;28;20020;-84
2023/01/29 05:54:43;;;;;;;25.85;15.55;;;;;;;;;;5084254;28;20020;-85
2023/01/29 05:57:09;;;;;;;29.23;17.40;;;;;;;;;;5101205;28;20040;-84
2023/01/29 05:59:35;;;;;;;28.73;16.95;;;;;;;;;;5100119;28;20028;-84
2023/01/29 06:02:02;;;;;;;26.05;16.27;;;;;;;;;;5095818;28;20034;-82
2023/01/29 06:04:28;;;;;;;23.90;16.77;;;;;;;;;;5100566;28;20032;-83
2023/01/29 06:06:54;;;;;;;28.52;17.35;;;;;;;;;;5102743;28;20047;-83
2023/01/29 06:09:20;;;;;;;26.02;18.27;;;;;;;;;;5100102;28;20111;-83
2023/01/29 06:11:46;;;;;;;32.00;19.15;;;;;;;;;;5090003;28;20086;-81
2023/01/29 06:14:12;;;;;;;30.45;19.20;;;;;;;;;;5098883;28;20051;-82
2023/01/29 06:16:38;;;;;;;32.08;19.50;;;;;;;;;;5095088;28;20202;-82
2023/01/29 06:19:04;;;;;;;32.83;20.17;;;;;;;;;;5092496;28;20488;-82
2023/01/29 06:21:30;;;;;;;27.15;20.05;;;;;;;;;;5098796;28;20815;-84
2023/01/29 06:23:56;;;;;;;31.10;21.52;;;;;;;;;;5096563;28;20102;-84
2023/01/29 06:26:22;;;;;;;30.05;21.75;;;;;;;;;;5082181;28;20036;-84
2023/01/29 06:28:49;;;;;;;32.78;21.95;;;;;;;;;;5099823;28;20035;-83
2023/01/29 06:31:15;;;;;;;38.63;24.00;;;;;;;;;;5100064;28;20016;-87
2023/01/29 06:33:41;;;;;;;32.83;21.83;;;;;;;;;;5083758;28;20032;-87
2023/01/29 06:36:07;;;;;;;32.67;21.55;;;;;;;;;;5101738;28;20035;-85
2023/01/29 06:38:33;;;;;;;30.73;22.10;;;;;;;;;;5102128;28;20023;-85
2023/01/29 06:40:59;;;;;;;32.85;23.52;;;;;;;;;;5101155;28;20080;-83
2023/01/29 06:43:25;;;;;;;40.53;24.25;;;;;;;;;;5099815;28;20419;-84
2023/01/29 06:45:53;;;;;;;31.45;23.67;;;;;;;;;;5098432;28;20036;-85
2023/01/29 06:48:19;;;;;;;35.97;24.67;;;;;;;;;;5092352;28;20035;-84
2023/01/29 06:50:45;;;;;;;36.15;24.67;;;;;;;;;;5101653;28;20024;-84
2023/01/29 06:53:11;;;;;;;38.78;24.42;;;;;;;;;;5086528;28;20464;-85
2023/01/29 06:55:37;;;;;;;38.20;25.45;;;;;;;;;;5098130;28;20016;-84
2023/01/29 06:58:07;;;;;;;34.38;24.63;;;;;;;;;;5096259;28;20090;-84
2023/01/29 07:00:33;;;;;;;33.70;24.25;;;;;;;;;;5097938;28;20064;-84
2023/01/29 07:02:59;;;;;;;34.38;24.00;;;;;;;;;;5097988;28;20388;-86
2023/01/29 07:05:25;;;;;;;32.08;23.88;;;;;;;;;;5092701;28;20039;-87
2023/01/29 07:07:51;;;;;;;31.65;23.98;;;;;;;;;;5098109;28;20040;-84
2023/01/29 07:10:17;;;;;;;31.98;23.38;;;;;;;;;;5092735;28;20076;-84
2023/01/29 07:12:44;;;;;;;30.13;23.42;;;;;;;;;;5091170;28;20027;-83
2023/01/29 07:15:13;;;;;;;35.17;21.77;;;;;;;;;;5095066;28;20040;-85
2023/01/29 07:17:39;;;;;;;33.95;22.60;;;;;;;;;;5104094;28;20100;-84
2023/01/29 07:20:06;;;;;;;33.10;22.40;;;;;;;;;;5107124;28;20081;-83
2023/01/29 07:22:32;;;;;;;29.23;21.48;;;;;;;;;;5073583;28;20027;-79
2023/01/29 07:24:59;;;;;;;30.60;22.63;;;;;;;;;;5073989;28;20427;-82
2023/01/29 07:27:25;;;;;;;30.60;22.60;;;;;;;;;;5091217;28;20393;-81
2023/01/29 07:29:51;;;;;;;36.92;23.52;;;;;;;;;;5095616;28;20134;-81
2023/01/29 07:32:17;;;;;;;33.40;22.05;;;;;;;;;;5095286;28;20031;-80
2023/01/29 07:34:43;;;;;;;29.60;22.35;;;;;;;;;;5092785;28;20035;-81
2023/01/29 07:37:09;;;;;;;31.05;22.55;;;;;;;;;;5090821;28;20040;-80
2023/01/29 07:39:35;;;;;;;36.05;22.50;;;;;;;;;;5088595;28;20024;-82
2023/01/29 07:42:01;;;;;;;84.78;45.00;;;;;;;;;;5088759;28;20085;-83
2023/01/29 07:44:27;;;;;;;34.53;22.30;;;;;;;;;;5087370;28;20473;-79
2023/01/29 07:46:53;;;;;;;34.05;23.50;;;;;;;;;;5092369;28;20024;-82
2023/01/29 07:49:19;;;;;;;35.28;23.35;;;;;;;;;;5077478;28;20027;-81
2023/01/29 07:51:45;;;;;;;32.53;22.65;;;;;;;;;;5092387;28;20449;-83
2023/01/29 07:54:11;;;;;;;35.10;23.60;;;;;;;;;;5092493;28;20040;-85
2023/01/29 07:56:37;;;;;;;39.97;25.00;;;;;;;;;;5069586;28;20122;-85
2023/01/29 07:59:03;;;;;;;32.75;25.30;;;;;;;;;;5083097;28;20051;-83
2023/01/29 08:01:29;;;;;;;39.35;25.77;;;;;;;;;;5091446;28;20237;-86
2023/01/29 08:03:55;;;;;;;39.97;26.77;;;;;;;;;;5087808;28;20785;-82
2023/01/29 08:06:22;;;;;;;38.42;24.15;;;;;;;;;;5059417;28;1207562;-82
2023/01/29 08:08:48;;;;;;;44.38;26.48;;;;;;;;;;5089838;28;20047;-85
2023/01/29 08:11:14;;;;;;;42.72;27.30;;;;;;;;;;5097181;28;20023;-83
2023/01/29 08:13:40;;;;;;;41.10;26.83;;;;;;;;;;5093876;28;20115;-81
2023/01/29 08:16:06;;;;;;;37.55;27.13;;;;;;;;;;5086912;28;20611;-83
2023/01/29 08:18:32;;;;;;;40.90;27.00;;;;;;;;;;5087945;28;20081;-83
2023/01/29 08:20:59;;;;;;;40.92;25.88;;;;;;;;;;5091316;28;20487;-81
2023/01/29 08:23:26;;;;;;;43.95;27.80;;;;;;;;;;5092393;28;20028;-82
2023/01/29 08:25:55;;;;;;;53.63;29.80;;;;;;;;;;5086602;28;20035;-81
2023/01/29 08:28:21;;;;;;;40.85;27.42;;;;;;;;;;5072186;28;20471;-82
2023/01/29 08:30:47;;;;;;;40.60;27.00;;;;;;;;;;5092191;28;20028;-81
2023/01/29 08:33:13;;;;;;;39.45;25.77;;;;;;;;;;5103566;28;20059;-84
2023/01/29 08:35:40;;;;;;;45.28;26.35;;;;;;;;;;5094934;28;20031;-85
2023/01/29 08:38:06;;;;;;;42.10;28.83;;;;;;;;;;5097272;28;20028;-83
2023/01/29 08:40:33;;;;;;;39.20;26.65;;;;;;;;;;5089183;28;20035;-77
2023/01/29 08:43:03;;;;;;;43.55;26.30;;;;;;;;;;5088133;28;20493;-78
2023/01/29 08:45:29;;;;;;;41.83;24.95;;;;;;;;;;5092120;28;20024;-78
2023/01/29 08:47:55;;;;;;;42.78;27.38;;;;;;;;;;5086028;28;20386;-81
2023/01/29 08:50:21;;;;;;;45.50;27.92;;;;;;;;;;5090762;28;20035;-77
2023/01/29 08:52:47;;;;;;;38.20;25.67;;;;;;;;;;5078231;28;20039;-79
2023/01/29 08:55:14;;;;;;;38.03;27.25;;;;;;;;;;5093782;28;20047;-85
2023/01/29 08:57:40;;;;;;;41.42;26.80;;;;;;;;;;5104881;28;20038;-80
2023/01/29 09:00:06;;;;;;;42.38;27.52;;;;;;;;;;5088149;28;20051;-81
2023/01/29 09:02:32;;;;;;;39.38;27.23;;;;;;;;;;5097469;28;20016;-83
2023/01/29 09:04:58;;;;;;;41.40;27.85;;;;;;;;;;5091549;28;20111;-82
2023/01/29 09:07:24;;;;;;;41.65;27.77;;;;;;;;;;5095228;28;20051;-86
2023/01/29 09:09:50;;;;;;;38.67;28.05;;;;;;;;;;5100174;28;20171;-84
2023/01/29 09:12:16;;;;;;;41.50;27.70;;;;;;;;;;5091887;28;20028;-86
2023/01/29 09:14:42;;;;;;;40.75;26.08;;;;;;;;;;5090375;28;20024;-87
2023/01/29 09:17:08;;;;;;;47.72;29.50;;;;;;;;;;5095964;28;20109;-86
2023/01/29 09:19:34;;;;;;;45.60;28.23;;;;;;;;;;5091428;28;20039;-85
2023/01/29 09:22:00;;;;;;;42.80;28.77;;;;;;;;;;5070424;28;20033;-83
2023/01/29 09:24:27;;;;;;;40.08;27.58;;;;;;;;;;5106861;28;20027;-78
2023/01/29 09:26:53;;;;;;;41.47;26.58;;;;;;;;;;5112050;28;20554;-83
2023/01/29 09:29:19;;;;;;;44.17;27.85;;;;;;;;;;5090332;28;20442;-81
2023/01/29 09:31:45;;;;;;;42.63;28.23;;;;;;;;;;5069485;28;20028;-78
2023/01/29 09:34:11;;;;;;;37.45;26.60;;;;;;;;;;5070781;28;20081;-77
2023/01/29 09:36:37;;;;;;;41.42;27.38;;;;;;;;;;5086954;28;20388;-77
2023/01/29 09:39:03;;;;;;;45.85;27.60;;;;;;;;;;5082431;28;20031;-82
2023/01/29 09:41:55;;;;;;;41.55;28.65;;;;;;;;;;5090936;28;20052;-80
2023/01/29 09:44:26;;;;;;;43.78;26.17;;;;;;;;;;5083367;28;20082;-81
2023/01/29 09:46:53;;;;;;;46.72;27.77;;;;;;;;;;5087429;28;20032;-81
2023/01/29 09:49:31;;;;;;;45.47;27.73;;;;;;;;;;5055282;28;20028;-86
2023/01/29 09:52:01;;;;;;;38.58;27.45;;;;;;;;;;5081334;28;20024;-84
2023/01/29 09:54:32;;;;;;;51.55;29.73;;;;;;;;;;5086036;28;20050;-83
2023/01/29 09:56:58;;;;;;;46.08;29.00;;;;;;;;;;5098188;28;20038;-86
2023/01/29 09:59:26;;;;;;;49.28;31.30;;;;;;;;;;5096345;28;20453;-85
2023/01/29 10:01:58;;;;;;;52.22;31.42;;;;;;;;;;5094083;28;20036;-80
2023/01/29 10:04:27;;;;;;;52.75;30.58;;;;;;;;;;5109774;28;20027;-78
2023/01/29 10:07:02;;;;;;;53.75;30.80;;;;;;;;;;5083464;28;20545;-78
2023/01/29 10:09:28;;;;;;;47.38;29.30;;;;;;;;;;5081326;28;20035;-78
2023/01/29 10:12:09;;;;;;;50.72;31.65;;;;;;;;;;5086086;28;20085;-77
2023/01/29 10:14:42;;;;;;;50.25;31.85;;;;;;;;;;5103638;28;20036;-78
2023/01/29 10:17:28;;;;;;;45.33;29.70;;;;;;;;;;5095026;28;20357;-80
2023/01/29 10:20:10;;;;;;;59.28;34.88;;;;;;;;;;5093979;28;20085;-80
2023/01/29 10:22:55;;;;;;;54.08;32.03;;;;;;;;;;5094059;28;20066;-80
2023/01/29 10:25:21;;;;;;;55.35;33.35;;;;;;;;;;5084654;28;20051;-80
2023/01/29 10:27:49;;;;;;;47.92;29.75;;;;;;;;;;5086569;28;20044;-79
2023/01/29 10:30:37;;;;;;;53.70;32.33;;;;;;;;;;5088502;28;20028;-80
2023/01/29 10:33:12;;;;;;;48.22;28.52;;;;;;;;;;5084830;28;20481;-81
2023/01/29 10:35:40;;;;;;;52.83;30.85;;;;;;;;;;5088311;28;20044;-81
2023/01/29 10:38:25;;;;;;;49.08;30.00;;;;;;;;;;5101522;28;20028;-81
2023/01/29 10:40:51;;;;;;;47.10;30.60;;;;;;;;;;5082846;28;20348;-80
2023/01/29 10:43:22;;;;;;;49.72;29.27;;;;;;;;;;5089571;28;20051;-81
2023/01/29 10:45:54;;;;;;;50.65;29.73;;;;;;;;;;5087752;28;20165;-80
2023/01/29 10:48:20;;;;;;;45.13;28.45;;;;;;;;;;5090321;28;20040;-81
2023/01/29 10:51:10;;;;;;;40.22;26.90;;;;;;;;;;5097870;28;20027;-81
2023/01/29 10:53:46;;;;;;;46.90;27.85;;;;;;;;;;5046045;28;20473;-81
2023/01/29 10:56:27;;;;;;;40.10;27.33;;;;;;;;;;5075199;28;20040;-81
2023/01/29 10:59:16;;;;;;;48.75;27.45;;;;;;;;;;5091076;28;20491;-81
2023/01/29 11:01:42;;;;;;;43.85;26.80;;;;;;;;;;5066402;28;20031;-81
2023/01/29 11:04:11;;;;;;;50.38;27.88;;;;;;;;;;5078600;28;20555;-81
2023/01/29 11:06:37;;;;;;;43.95;27.73;;;;;;;;;;5093868;28;20048;-81
2023/01/29 11:09:22;;;;;;;40.63;27.33;;;;;;;;;;5084368;28;20036;-82
2023/01/29 11:11:48;;;;;;;46.33;27.95;;;;;;;;;;5084732;28;20489;-81
2023/01/29 11:14:18;;;;;;;45.65;27.75;;;;;;;;;;5088362;28;20077;-82
2023/01/29 11:16:46;;;;;;;52.10;28.83;;;;;;;;;;5098088;28;20240;-81
2023/01/29 11:19:12;;;;;;;37.90;25.25;;;;;;;;;;5098343;28;20034;-82
2023/01/29 11:21:58;;;;;;;42.33;27.45;;;;;;;;;;5098389;28;20058;-81
2023/01/29 11:24:24;;;;;;;38.53;24.90;;;;;;;;;;5073827;28;20036;-81
2023/01/29 11:26:51;;;;;;;37.88;23.90;;;;;;;;;;5089567;28;20039;-81
2023/01/29 11:29:36;;;;;;;45.60;25.20;;;;;;;;;;5097125;28;20036;-80
2023/01/29 11:32:25;;;;;;;38.13;24.38;;;;;;;;;;5079362;28;20031;-80
2023/01/29 11:35:02;;;;;;;36.28;23.45;;;;;;;;;;5062747;28;20048;-82
2023/01/29 11:37:36;;;;;;;42.75;23.95;;;;;;;;;;5092981;28;20039;-82
2023/01/29 11:40:22;;;;;;;36.55;23.05;;;;;;;;;;5088442;28;20058;-82
2023/01/29 11:42:48;;;;;;;39.28;23.83;;;;;;;;;;5084153;28;20031;-79
2023/01/29 11:45:20;;;;;;;30.15;20.70;;;;;;;;;;5090523;28;20024;-80
2023/01/29 11:47:54;;;;;;;36.35;24.30;;;;;;;;;;5093440;28;20127;-78
2023/01/29 11:50:24;;;;;;;40.47;22.90;;;;;;;;;;5107106;28;20059;-79
2023/01/29 11:52:50;;;;;;;35.83;20.63;;;;;;;;;;5089135;28;20070;-82
2023/01/29 11:55:18;;;;;;;37.83;23.92;;;;;;;;;;5094225;28;20036;-81
2023/01/29 11:58:11;;;;;;;31.23;20.75;;;;;;;;;;5090473;28;20036;-81
2023/01/29 12:00:39;;;;;;;45.45;23.05;;;;;;;;;;5097032;28;20040;-79
2023/01/29 12:03:25;;;;;;;32.42;21.55;;;;;;;;;;5088042;28;20024;-81
2023/01/29 12:06:02;;;;;;;32.50;21.77;;;;;;;;;;5070279;28;20131;-81
2023/01/29 12:08:33;;;;;;;41.25;23.00;;;;;;;;;;5091441;28;20047;-82
2023/01/29 12:11:07;;;;;;;30.38;20.73;;;;;;;;;;5088123;28;20734;-83
2023/01/29 12:13:34;;;;;;;34.30;20.65;;;;;;;;;;5091385;28;20496;-81
2023/01/29 12:16:12;;;;;;;34.92;22.52;;;;;;;;;;5086565;28;20036;-83
2023/01/29 12:18:43;;;;;;;35.40;21.35;;;;;;;;;;5088726;28;20035;-81
2023/01/29 12:21:14;;;;;;;30.15;21.20;;;;;;;;;;5087698;28;20062;-82
2023/01/29 12:23:40;;;;;;;32.83;21.30;;;;;;;;;;5092483;28;20053;-81
2023/01/29 12:26:14;;;;;;;33.63;21.88;;;;;;;;;;5088698;28;20036;-82
2023/01/29 12:28:43;;;;;;;32.70;22.80;;;;;;;;;;5091185;28;20067;-82
2023/01/29 12:31:19;;;;;;;37.58;23.10;;;;;;;;;;5094834;28;20384;-82
2023/01/29 12:33:52;;;;;;;33.20;21.65;;;;;;;;;;5086754;28;20035;-83
2023/01/29 12:36:27;;;;;;;34.85;22.98;;;;;;;;;;5091838;28;20020;-82
2023/01/29 12:38:54;;;;;;;31.70;21.65;;;;;;;;;;5104809;28;20055;-83
2023/01/29 12:41:20;;;;;;;37.00;23.27;;;;;;;;;;5091557;28;20024;-82
2023/01/29 12:43:52;;;;;;;33.90;22.45;;;;;;;;;;5094013;28;20027;-83
2023/01/29 12:46:24;;;;;;;43.78;24.27;;;;;;;;;;5096971;28;20063;-83
2023/01/29 12:48:52;;;;;;;35.65;23.67;;;;;;;;;;5090748;28;20447;-81
2023/01/29 12:51:20;;;;;;;38.83;24.75;;;;;;;;;;5091226;28;20107;-82
2023/01/29 12:53:57;;;;;;;37.42;25.52;;;;;;;;;;5088397;28;20026;-82
2023/01/29 12:56:30;;;;;;;30.65;20.85;;;;;;;;;;5104864;28;20166;-82
2023/01/29 12:58:59;;;;;;;30.70;20.95;;;;;;;;;;5099997;28;20077;-84
2023/01/29 13:01:40;;;;;;;39.22;25.02;;;;;;;;;;5070974;28;20484;-84
2023/01/29 13:04:10;;;;;;;38.58;23.92;;;;;;;;;;5097280;28;20035;-84
2023/01/29 13:06:41;;;;;;;40.30;25.10;;;;;;;;;;5102096;28;20032;-83
2023/01/29 13:09:27;;;;;;;35.53;23.92;;;;;;;;;;5096062;28;20378;-78
2023/01/29 13:11:57;;;;;;;42.03;26.50;;;;;;;;;;5065781;28;20372;-79
2023/01/29 13:14:27;;;;;;;45.90;26.77;;;;;;;;;;5089817;28;20521;-80
2023/01/29 13:16:57;;;;;;;39.67;26.52;;;;;;;;;;5097639;28;20052;-80
2023/01/29 13:19:29;;;;;;;43.35;27.60;;;;;;;;;;5094101;28;20028;-84
2023/01/29 13:21:57;;;;;;;41.53;25.50;;;;;;;;;;5087482;28;20073;-82
2023/01/29 13:24:25;;;;;;;42.78;27.92;;;;;;;;;;5097126;28;20023;-80
2023/01/29 13:26:51;;;;;;;56.15;37.38;;;;;;;;;;5096769;28;20040;-80
2023/01/29 13:29:24;;;;;;;37.78;25.27;;;;;;;;;;5091433;28;20043;-80
2023/01/29 13:31:51;;;;;;;42.28;24.75;;;;;;;;;;5088021;28;20032;-80
2023/01/29 13:34:20;;;;;;;39.72;24.85;;;;;;;;;;5095302;28;20035;-79
2023/01/29 13:36:49;;;;;;;45.13;25.38;;;;;;;;;;5090396;28;20036;-80
2023/01/29 13:39:36;;;;;;;38.00;24.27;;;;;;;;;;5099585;28;20031;-81
2023/01/29 13:42:03;;;;;;;36.88;25.13;;;;;;;;;;5099137;28;20035;-81
2023/01/29 13:44:32;;;;;;;42.50;26.58;;;;;;;;;;5096067;28;20055;-80
2023/01/29 13:47:05;;;;;;;41.10;25.23;;;;;;;;;;5092538;28;20392;-82
2023/01/29 13:49:39;;;;;;;36.90;24.33;;;;;;;;;;5089070;28;20043;-81
2023/01/29 13:52:24;;;;;;;35.45;24.88;;;;;;;;;;5081379;28;20421;-82
2023/01/29 13:55:20;;;;;;;33.05;22.65;;;;;;;;;;5095702;28;20040;-81
2023/01/29 13:57:46;;;;;;;39.53;25.02;;;;;;;;;;5070822;28;20068;-81
2023/01/29 14:00:29;;;;;;;40.28;25.48;;;;;;;;;;5101280;28;20051;-81
2023/01/29 14:02:55;;;;;;;41.75;28.15;;;;;;;;;;5107463;28;20077;-82
2023/01/29 14:05:30;;;;;;;37.47;25.27;;;;;;;;;;5101114;28;20017;-82
2023/01/29 14:07:58;;;;;;;40.58;27.50;;;;;;;;;;5078665;28;20045;-81
2023/01/29 14:10:24;;;;;;;40.78;25.88;;;;;;;;;;5096979;28;20078;-81
2023/01/29 14:13:00;;;;;;;41.40;26.85;;;;;;;;;;5097890;28;20036;-81
2023/01/29 14:15:31;;;;;;;45.00;29.08;;;;;;;;;;5092910;28;20087;-83
2023/01/29 14:18:17;;;;;;;42.53;27.55;;;;;;;;;;5088621;28;20391;-80
2023/01/29 14:20:46;;;;;;;42.80;26.98;;;;;;;;;;5091830;28;20020;-80
2023/01/29 14:23:26;;;;;;;44.42;27.90;;;;;;;;;;5078125;28;20104;-79
2023/01/29 14:25:53;;;;;;;39.55;26.48;;;;;;;;;;5073268;28;20040;-79
2023/01/29 14:28:22;;;;;;;36.40;25.00;;;;;;;;;;5086021;28;20078;-80
2023/01/29 14:30:49;;;;;;;40.78;27.20;;;;;;;;;;5083843;28;20107;-80
2023/01/29 14:33:35;;;;;;;39.47;26.27;;;;;;;;;;5084601;28;20624;-80
2023/01/29 14:36:06;;;;;;;37.83;25.88;;;;;;;;;;5102196;28;20073;-81
2023/01/29 14:38:32;;;;;;;42.28;27.20;;;;;;;;;;5091880;28;20055;-80
2023/01/29 14:41:04;;;;;;;42.17;26.35;;;;;;;;;;5069580;28;20082;-80
2023/01/29 14:43:30;;;;;;;43.73;27.23;;;;;;;;;;5064897;28;20071;-80
2023/01/29 14:46:16;;;;;;;42.10;26.77;;;;;;;;;;5068395;28;20040;-80
2023/01/29 14:48:48;;;;;;;42.35;27.27;;;;;;;;;;5073245;28;20047;-81
2023/01/29 14:51:16;;;;;;;42.95;28.63;;;;;;;;;;5085102;28;20029;-79
2023/01/29 14:53:52;;;;;;;51.08;29.23;;;;;;;;;;5060547;28;20035;-81
2023/01/29 14:56:18;;;;;;;47.72;29.92;;;;;;;;;;5080665;28;20032;-80
2023/01/29 14:58:47;;;;;;;48.85;30.38;;;;;;;;;;5074793;28;20082;-81
2023/01/29 15:01:35;;;;;;;57.00;32.28;;;;;;;;;;5064134;28;20033;-81
2023/01/29 15:04:04;;;;;;;60.80;31.92;;;;;;;;;;5054199;28;20060;-81
2023/01/29 15:06:33;;;;;;;56.78;31.80;;;;;;;;;;5073089;28;20039;-82
2023/01/29 15:09:03;;;;;;;52.55;31.33;;;;;;;;;;5080804;28;20044;-80
2023/01/29 15:11:35;;;;;;;52.97;32.92;;;;;;;;;;5070785;28;20024;-81